Wetterdaten: Woche 29.05.17 - 04.06.17 (KW22)
Datum Zeit Temp. Aussen Temp. o. S. +5cm Feuchte Auss BlattFeu 1 Luftdruck Regen Sonnenschein Regendauer Solar Windben Empfang
29.05.2017 00:00 22,1 C 20,8 C 18,9 C 87 % 0 lf 1014,6 hPa 0,0 l/m 0,00 h 0,00 h 0 W/m 0,0 km/h (0 Bft) 98,35 %
29.05.2017 01:00 21,4 C 19,8 C 18,0 C 88 % 1 lf 1013,9 hPa 0,0 l/m 0,00 h 0,00 h 0 W/m 1,6 km/h (1 Bft) 94,26 %
29.05.2017 02:00 20,5 C 19,3 C 17,7 C 90 % 1 lf 1013,4 hPa 0,0 l/m 0,00 h 0,00 h 0 W/m 4,1 km/h (1 Bft) 97,36 %
29.05.2017 03:00 19,7 C 19,1 C 17,7 C 90 % 0 lf 1013,4 hPa 0,0 l/m 0,00 h 0,00 h 0 W/m 3,5 km/h (1 Bft) 96,28 %
29.05.2017 04:00 19,3 C 18,4 C 17,0 C 90 % 0 lf 1013,1 hPa 0,0 l/m 0,00 h 0,00 h 0 W/m 3,4 km/h (1 Bft) 96,88 %
29.05.2017 05:00 18,8 C 18,1 C 16,2 C 90 % 0 lf 1012,5 hPa 0,0 l/m 0,30 h 0,00 h 27 W/m 2,4 km/h (1 Bft) 96,86 %
29.05.2017 06:00 18,8 C 19,3 C 17,4 C 93 % 0 lf 1012,3 hPa 0,0 l/m 1,00 h 0,00 h 98 W/m 3,8 km/h (1 Bft) 95,81 %
29.05.2017 07:00 19,9 C 22,0 C 20,2 C 94 % 0 lf 1012,1 hPa 0,0 l/m 1,00 h 0,00 h 248 W/m 8,5 km/h (2 Bft) 94,52 %
29.05.2017 08:00 21,6 C 26,0 C 21,3 C 89 % 0 lf 1011,9 hPa 0,0 l/m 0,83 h 0,00 h 417 W/m 11,7 km/h (2 Bft) 98,50 %
29.05.2017 09:00 25,2 C 32,1 C 25,0 C 78 % 0 lf 1011,6 hPa 0,0 l/m 1,00 h 0,00 h 556 W/m 13,2 km/h (3 Bft) 94,56 %
29.05.2017 10:00 27,8 C 34,0 C 32,9 C 71 % 0 lf 1011,2 hPa 0,0 l/m 1,00 h 0,00 h 730 W/m 15,5 km/h (3 Bft) 95,76 %
29.05.2017 11:00 29,8 C 36,8 C 34,9 C 63 % 0 lf 1010,7 hPa 0,0 l/m 1,00 h 0,00 h 838 W/m 17,6 km/h (3 Bft) 97,20 %
29.05.2017 12:00 31,8 C 38,0 C 36,5 C 54 % 0 lf 1010,3 hPa 0,0 l/m 1,00 h 0,00 h 923 W/m 19,2 km/h (3 Bft) 97,07 %
29.05.2017 13:00 32,9 C 38,2 C 34,2 C 49 % 0 lf 1009,9 hPa 0,0 l/m 1,00 h 0,00 h 1045 W/m 18,6 km/h (3 Bft) 94,01 %
29.05.2017 14:00 33,7 C 39,4 C 41,7 C 45 % 0 lf 1009,4 hPa 0,0 l/m 1,00 h 0,00 h 1019 W/m 14,2 km/h (3 Bft) 96,75 %
29.05.2017 15:00 34,7 C 39,0 C 43,5 C 42 % 0 lf 1009,2 hPa 0,0 l/m 1,00 h 0,00 h 946 W/m 17,0 km/h (3 Bft) 96,31 %
29.05.2017 16:00 34,7 C 35,6 C 40,3 C 39 % 0 lf 1008,9 hPa 0,0 l/m 1,00 h 0,00 h 818 W/m 15,8 km/h (3 Bft) 95,32 %
29.05.2017 17:00 34,2 C 34,6 C 32,5 C 43 % 0 lf 1008,7 hPa 0,0 l/m 1,00 h 0,00 h 679 W/m 15,4 km/h (3 Bft) 98,08 %
29.05.2017 18:00 33,0 C 33,0 C 30,4 C 47 % 0 lf 1008,6 hPa 0,0 l/m 0,90 h 0,00 h 457 W/m 12,9 km/h (3 Bft) 93,83 %
29.05.2017 19:00 31,4 C 30,7 C 29,2 C 56 % 0 lf 1009,0 hPa 0,0 l/m 1,00 h 0,00 h 257 W/m 16,0 km/h (3 Bft) 95,93 %
29.05.2017 20:00 29,0 C 27,9 C 26,5 C 65 % 0 lf 1009,5 hPa 0,0 l/m 0,27 h 0,00 h 56 W/m 11,2 km/h (2 Bft) 96,58 %
29.05.2017 21:00 27,4 C 26,3 C 24,5 C 70 % 0 lf 1009,3 hPa 0,0 l/m 0,00 h 0,00 h 15 W/m 6,4 km/h (2 Bft) 94,88 %
29.05.2017 22:00 26,2 C 24,6 C 22,4 C 74 % 0 lf 1010,2 hPa 0,0 l/m 0,00 h 0,00 h 0 W/m 5,7 km/h (1 Bft) 95,59 %
29.05.2017 23:00 24,8 C 23,0 C 21,1 C 78 % 0 lf 1010,5 hPa 0,0 l/m 0,00 h 0,00 h 0 W/m 6,4 km/h (2 Bft) 97,69 %
30.05.2017 00:00 23,5 C 22,7 C 21,0 C 79 % 0 lf 1011,0 hPa 0,0 l/m 0,00 h 0,00 h 0 W/m 9,6 km/h (2 Bft) 94,78 %
30.05.2017 01:00 22,6 C 21,4 C 19,6 C 80 % 0 lf 1010,7 hPa 0,0 l/m 0,00 h 0,00 h 0 W/m 7,0 km/h (2 Bft) 96,45 %
30.05.2017 02:00 21,6 C 20,9 C 19,3 C 83 % 0 lf 1010,8 hPa 0,0 l/m 0,00 h 0,00 h 0 W/m 8,8 km/h (2 Bft) 95,87 %
30.05.2017 03:00 20,9 C 20,6 C 19,3 C 85 % 0 lf 1011,1 hPa 0,0 l/m 0,00 h 0,00 h 0 W/m 10,6 km/h (2 Bft) 97,73 %
30.05.2017 04:00 20,7 C 20,1 C 18,7 C 84 % 0 lf 1011,3 hPa 0,0 l/m 0,00 h 0,00 h 0 W/m 7,8 km/h (2 Bft) 93,47 %
30.05.2017 05:00 20,1 C 19,4 C 18,3 C 85 % 0 lf 1011,5 hPa 0,0 l/m 0,00 h 0,00 h 14 W/m 8,5 km/h (2 Bft) 96,51 %
30.05.2017 06:00 19,7 C 19,7 C 18,4 C 84 % 0 lf 1011,9 hPa 0,0 l/m 0,00 h 0,00 h 57 W/m 7,4 km/h (2 Bft) 97,95 %
30.05.2017 07:00 20,0 C 21,2 C 19,4 C 85 % 0 lf 1012,1 hPa 0,0 l/m 0,37 h 0,00 h 119 W/m 6,8 km/h (2 Bft) 95,02 %
30.05.2017 08:00 21,3 C 25,5 C 21,8 C 83 % 0 lf 1012,4 hPa 0,0 l/m 0,87 h 0,00 h 274 W/m 10,8 km/h (2 Bft) 94,87 %
30.05.2017 09:00 23,0 C 26,8 C 24,0 C 79 % 0 lf 1012,7 hPa 0,0 l/m 0,40 h 0,00 h 259 W/m 10,4 km/h (2 Bft) 98,86 %
30.05.2017 10:00 24,0 C 29,2 C 27,1 C 75 % 0 lf 1012,8 hPa 0,0 l/m 0,30 h 0,00 h 373 W/m 14,4 km/h (3 Bft) 93,95 %
30.05.2017 11:00 24,8 C 28,4 C 27,0 C 72 % 0 lf 1013,0 hPa 0,0 l/m 0,33 h 0,00 h 321 W/m 16,0 km/h (3 Bft) 96,23 %
30.05.2017 12:00 25,0 C 28,1 C 27,6 C 69 % 0 lf 1013,0 hPa 0,0 l/m 0,37 h 0,00 h 372 W/m 21,2 km/h (4 Bft) 96,58 %
30.05.2017 13:00 24,5 C 27,2 C 26,3 C 71 % 0 lf 1013,2 hPa 0,0 l/m 0,37 h 0,03 h 381 W/m 21,9 km/h (4 Bft) 95,56 %
30.05.2017 14:00 24,6 C 27,5 C 27,4 C 69 % 0 lf 1013,0 hPa 0,0 l/m 0,40 h 0,00 h 438 W/m 24,0 km/h (4 Bft) 94,67 %
30.05.2017 15:00 24,8 C 28,6 C 30,1 C 66 % 0 lf 1012,9 hPa 0,0 l/m 0,57 h 0,00 h 538 W/m 23,2 km/h (4 Bft) 96,73 %
30.05.2017 16:00 25,7 C 27,0 C 28,8 C 61 % 0 lf 1013,1 hPa 0,0 l/m 0,57 h 0,00 h 437 W/m 23,1 km/h (4 Bft) 96,82 %
30.05.2017 17:00 25,1 C 26,1 C 25,3 C 61 % 0 lf 1013,3 hPa 0,0 l/m 0,53 h 0,00 h 407 W/m 23,8 km/h (4 Bft) 94,33 %
30.05.2017 18:00 24,2 C 24,9 C 23,8 C 62 % 0 lf 1014,0 hPa 0,0 l/m 0,60 h 0,00 h 303 W/m 24,2 km/h (4 Bft) 95,71 %
30.05.2017 19:00 22,4 C 22,4 C 19,8 C 66 % 0 lf 1014,8 hPa 0,0 l/m 0,40 h 0,03 h 147 W/m 22,7 km/h (4 Bft) 95,99 %
30.05.2017 20:00 20,9 C 20,7 C 18,9 C 67 % 0 lf 1015,4 hPa 0,0 l/m 0,40 h 0,00 h 67 W/m 19,9 km/h (4 Bft) 93,17 %
30.05.2017 21:00 19,9 C 19,7 C 18,2 C 67 % 0 lf 1016,2 hPa 0,0 l/m 0,00 h 0,00 h 9 W/m 19,1 km/h (3 Bft) 95,94 %
30.05.2017 22:00 19,2 C 18,6 C 17,4 C 71 % 0 lf 1017,2 hPa 0,0 l/m 0,00 h 0,00 h 0 W/m 14,5 km/h (3 Bft) 97,37 %
30.05.2017 23:00 18,5 C 18,2 C 17,0 C 72 % 0 lf 1017,7 hPa 0,0 l/m 0,00 h 0,00 h 0 W/m 13,2 km/h (3 Bft) 95,04 %
31.05.2017 00:00 18,0 C 17,2 C 15,9 C 73 % 0 lf 1018,0 hPa 0,0 l/m 0,00 h 0,00 h 0 W/m 9,6 km/h (2 Bft) 95,16 %
31.05.2017 01:00 16,8 C 15,5 C 14,0 C 76 % 0 lf 1018,4 hPa 0,0 l/m 0,00 h 0,00 h 0 W/m 8,3 km/h (2 Bft) 97,67 %
31.05.2017 02:00 15,6 C 14,6 C 13,4 C 80 % 0 lf 1018,6 hPa 0,0 l/m 0,00 h 0,00 h 0 W/m 7,3 km/h (2 Bft) 94,02 %
31.05.2017 03:00 14,7 C 14,1 C 12,7 C 82 % 0 lf 1019,0 hPa 0,0 l/m 0,00 h 0,00 h 0 W/m 8,5 km/h (2 Bft) 97,01 %
31.05.2017 04:00 14,0 C 13,4 C 12,1 C 85 % 0 lf 1019,1 hPa 0,0 l/m 0,00 h 0,00 h 0 W/m 9,2 km/h (2 Bft) 95,80 %
31.05.2017 05:00 13,4 C 12,9 C 11,8 C 87 % 0 lf 1019,2 hPa 0,0 l/m 0,00 h 0,00 h 11 W/m 9,4 km/h (2 Bft) 94,16 %
31.05.2017 06:00 13,5 C 14,0 C 12,9 C 89 % 0 lf 1019,7 hPa 0,0 l/m 0,00 h 0,00 h 44 W/m 13,8 km/h (3 Bft) 97,32 %
31.05.2017 07:00 14,1 C 15,0 C 13,5 C 87 % 0 lf 1020,2 hPa 0,0 l/m 0,73 h 0,00 h 141 W/m 13,3 km/h (3 Bft) 96,87 %
31.05.2017 08:00 15,1 C 16,4 C 15,5 C 86 % 0 lf 1020,8 hPa 0,0 l/m 0,00 h 0,00 h 103 W/m 12,1 km/h (2 Bft) 92,52 %
31.05.2017 09:00 15,9 C 17,1 C 16,5 C 85 % 0 lf 1021,2 hPa 0,0 l/m 0,00 h 0,00 h 112 W/m 9,2 km/h (2 Bft) 98,36 %
31.05.2017 10:00 16,9 C 18,7 C 18,3 C 84 % 0 lf 1021,5 hPa 0,0 l/m 0,00 h 0,00 h 172 W/m 8,6 km/h (2 Bft) 96,96 %
31.05.2017 11:00 19,3 C 27,5 C 24,4 C 78 % 0 lf 1021,5 hPa 0,0 l/m 0,53 h 0,00 h 474 W/m 8,8 km/h (2 Bft) 92,83 %
31.05.2017 12:00 23,3 C 31,9 C 29,0 C 64 % 0 lf 1021,4 hPa 0,0 l/m 0,77 h 0,00 h 693 W/m 12,3 km/h (3 Bft) 97,79 %
31.05.2017 13:00 23,6 C 30,4 C 25,6 C 60 % 0 lf 1021,2 hPa 0,0 l/m 0,65 h 0,00 h 687 W/m 11,9 km/h (2 Bft) 96,88 %
31.05.2017 14:00 23,9 C 27,2 C 26,3 C 58 % 0 lf 1020,9 hPa 0,0 l/m 0,30 h 0,00 h 369 W/m 12,6 km/h (3 Bft) 94,47 %
31.05.2017 15:00 24,5 C 30,5 C 32,8 C 55 % 0 lf 1020,6 hPa 0,0 l/m 0,87 h 0,00 h 698 W/m 11,5 km/h (2 Bft) 96,16 %
31.05.2017 16:00 24,6 C 26,0 C 26,9 C 54 % 0 lf 1020,2 hPa 0,0 l/m 0,17 h 0,00 h 267 W/m 7,9 km/h (2 Bft) 97,10 %
31.05.2017 17:00 23,9 C 25,5 C 24,2 C 56 % 0 lf 1019,8 hPa 0,0 l/m 0,23 h 0,00 h 262 W/m 10,5 km/h (2 Bft) 96,01 %
31.05.2017 18:00 23,3 C 24,1 C 22,6 C 60 % 0 lf 1019,8 hPa 0,0 l/m 0,80 h 0,00 h 287 W/m 19,2 km/h (3 Bft) 92,03 %
31.05.2017 19:00 22,3 C 22,5 C 21,1 C 63 % 0 lf 1019,9 hPa 0,0 l/m 0,90 h 0,00 h 187 W/m 16,2 km/h (3 Bft) 97,44 %
31.05.2017 20:00 21,7 C 21,2 C 19,7 C 65 % 0 lf 1020,1 hPa 0,0 l/m 0,10 h 0,00 h 50 W/m 11,2 km/h (2 Bft) 97,72 %
31.05.2017 21:00 20,2 C 19,3 C 17,9 C 70 % 0 lf 1020,5 hPa 0,0 l/m 0,00 h 0,00 h 15 W/m 14,1 km/h (3 Bft) 92,17 %
31.05.2017 22:00 18,7 C 17,6 C 16,4 C 73 % 0 lf 1020,9 hPa 0,0 l/m 0,00 h 0,00 h 0 W/m 9,2 km/h (2 Bft) 98,00 %
31.05.2017 23:00 17,6 C 16,5 C 15,2 C 76 % 0 lf 1021,3 hPa 0,0 l/m 0,00 h 0,00 h 0 W/m 8,7 km/h (2 Bft) 96,01 %
01.06.2017 00:00 16,5 C 14,9 C 13,7 C 78 % 0 lf 1021,4 hPa 0,0 l/m 0,00 h 0,00 h 0 W/m 4,6 km/h (1 Bft) 81,01 %
01.06.2017 01:00 15,5 C 13,6 C 12,2 C 80 % 0 lf 1021,3 hPa 0,0 l/m 0,00 h 0,00 h 0 W/m 1,6 km/h (1 Bft) 78,06 %
01.06.2017 02:00 14,5 C 13,2 C 12,0 C 82 % 0 lf 1021,4 hPa 0,0 l/m 0,00 h 0,00 h 0 W/m 2,4 km/h (1 Bft) 56,15 %
01.06.2017 03:00 13,7 C 12,0 C 10,8 C 83 % 1 lf 1021,2 hPa 0,0 l/m 0,00 h 0,00 h 0 W/m 0,3 km/h (0 Bft) 51,38 %
01.06.2017 04:00 12,7 C 11,0 C 10,1 C 86 % 1 lf 1021,2 hPa 0,0 l/m 0,00 h 0,00 h 0 W/m 0,0 km/h (0 Bft) 73,19 %
01.06.2017 05:00 11,9 C 10,7 C 9,9 C 87 % 1 lf 1021,3 hPa 0,0 l/m 0,37 h 0,00 h 22 W/m 0,1 km/h (0 Bft) 54,11 %
01.06.2017 06:00 11,7 C 11,9 C 10,7 C 90 % 1 lf 1021,4 hPa 0,0 l/m 1,00 h 0,00 h 85 W/m 2,5 km/h (1 Bft) 85,02 %
01.06.2017 07:00 12,6 C 14,1 C 12,4 C 89 % 0 lf 1021,7 hPa 0,0 l/m 1,00 h 0,00 h 233 W/m 6,8 km/h (2 Bft) 98,07 %
01.06.2017 08:00 14,3 C 21,1 C 14,5 C 85 % 0 lf 1021,9 hPa 0,0 l/m 1,00 h 0,00 h 438 W/m 7,1 km/h (2 Bft) 93,81 %
01.06.2017 09:00 17,5 C 28,3 C 18,1 C 77 % 0 lf 1022,0 hPa 0,0 l/m 1,00 h 0,00 h 533 W/m 10,8 km/h (2 Bft) 96,08 %
01.06.2017 10:00 19,7 C 30,8 C 24,7 C 70 % 0 lf 1021,9 hPa 0,0 l/m 1,00 h 0,00 h 683 W/m 10,6 km/h (2 Bft) 98,41 %
01.06.2017 11:00 22,2 C 33,4 C 27,9 C 63 % 0 lf 1021,7 hPa 0,0 l/m 0,97 h 0,00 h 774 W/m 10,7 km/h (2 Bft) 93,29 %
01.06.2017 12:00 23,3 C 31,9 C 28,8 C 60 % 0 lf 1021,5 hPa 0,0 l/m 0,88 h 0,00 h 890 W/m 13,0 km/h (3 Bft) 96,21 %
01.06.2017 13:00 24,8 C 34,1 C 26,3 C 56 % 0 lf 1020,6 hPa 0,0 l/m 1,05 h 0,00 h 1052 W/m 10,0 km/h (2 Bft) 99,66 %
01.06.2017 14:00 24,9 C 33,3 C 32,8 C 52 % 0 lf 1020,1 hPa 0,0 l/m 1,00 h 0,00 h 1060 W/m 10,6 km/h (2 Bft) 96,07 %
01.06.2017 15:00 25,7 C 32,9 C 34,9 C 50 % 0 lf 1019,8 hPa 0,0 l/m 0,97 h 0,00 h 965 W/m 10,6 km/h (2 Bft) 94,89 %
01.06.2017 16:00 26,6 C 29,4 C 32,7 C 49 % 0 lf 1019,4 hPa 0,0 l/m 1,03 h 0,00 h 805 W/m 9,3 km/h (2 Bft) 97,96 %
01.06.2017 17:00 26,3 C 27,1 C 25,3 C 49 % 0 lf 1018,9 hPa 0,0 l/m 1,00 h 0,00 h 627 W/m 10,1 km/h (2 Bft) 95,95 %
01.06.2017 18:00 25,2 C 25,8 C 23,7 C 51 % 0 lf 1018,5 hPa 0,0 l/m 1,00 h 0,00 h 533 W/m 10,6 km/h (2 Bft) 95,87 %
01.06.2017 19:00 24,4 C 24,4 C 22,9 C 52 % 0 lf 1018,2 hPa 0,0 l/m 1,00 h 0,00 h 304 W/m 11,5 km/h (2 Bft) 94,94 %
01.06.2017 20:00 23,9 C 23,5 C 21,8 C 54 % 0 lf 1018,0 hPa 0,0 l/m 1,00 h 0,00 h 150 W/m 10,4 km/h (2 Bft) 98,43 %
01.06.2017 21:00 22,7 C 21,3 C 19,6 C 58 % 0 lf 1018,1 hPa 0,0 l/m 0,43 h 0,00 h 26 W/m 7,8 km/h (2 Bft) 95,01 %
01.06.2017 22:00 21,1 C 19,0 C 16,7 C 62 % 0 lf 1018,3 hPa 0,0 l/m 0,00 h 0,00 h 0 W/m 4,5 km/h (1 Bft) 95,79 %
01.06.2017 23:00 19,5 C 17,2 C 14,9 C 66 % 0 lf 1018,3 hPa 0,0 l/m 0,00 h 0,00 h 0 W/m 0,1 km/h (0 Bft) 97,44 %
02.06.2017 00:00 18,1 C 16,1 C 14,1 C 72 % 0 lf 1018,2 hPa 0,0 l/m 0,00 h 0,00 h 0 W/m 0,0 km/h (0 Bft) 96,45 %
02.06.2017 01:00 17,0 C 15,3 C 13,5 C 76 % 0 lf 1017,8 hPa 0,0 l/m 0,00 h 0,00 h 0 W/m 0,0 km/h (0 Bft) 94,67 %
02.06.2017 02:00 16,3 C 15,6 C 13,9 C 80 % 0 lf 1017,2 hPa 0,0 l/m 0,00 h 0,00 h 0 W/m 1,1 km/h (1 Bft) 97,22 %
02.06.2017 03:00 16,3 C 16,3 C 14,9 C 79 % 0 lf 1016,7 hPa 0,0 l/m 0,00 h 0,00 h 0 W/m 1,6 km/h (1 Bft) 95,65 %
02.06.2017 04:00 16,8 C 16,7 C 15,3 C 79 % 0 lf 1016,4 hPa 0,0 l/m 0,00 h 0,00 h 0 W/m 0,8 km/h (0 Bft) 97,28 %
02.06.2017 05:00 16,6 C 15,4 C 13,7 C 81 % 0 lf 1016,2 hPa 0,0 l/m 0,37 h 0,00 h 20 W/m 0,1 km/h (0 Bft) 95,51 %
02.06.2017 06:00 16,0 C 15,9 C 13,8 C 83 % 0 lf 1016,1 hPa 0,0 l/m 1,00 h 0,00 h 88 W/m 0,0 km/h (0 Bft) 95,94 %
02.06.2017 07:00 16,5 C 18,6 C 16,1 C 84 % 0 lf 1016,0 hPa 0,0 l/m 1,00 h 0,00 h 236 W/m 4,3 km/h (1 Bft) 96,94 %
02.06.2017 08:00 19,2 C 24,3 C 18,8 C 77 % 0 lf 1015,9 hPa 0,0 l/m 1,00 h 0,00 h 368 W/m 13,0 km/h (3 Bft) 97,15 %
02.06.2017 09:00 23,1 C 30,6 C 21,8 C 67 % 0 lf 1015,9 hPa 0,0 l/m 1,00 h 0,00 h 549 W/m 9,7 km/h (2 Bft) 92,74 %
02.06.2017 10:00 25,5 C 32,8 C 31,4 C 61 % 0 lf 1015,8 hPa 0,0 l/m 1,00 h 0,00 h 714 W/m 9,0 km/h (2 Bft) 98,71 %
02.06.2017 11:00 27,3 C 35,8 C 32,4 C 55 % 0 lf 1015,6 hPa 0,0 l/m 0,93 h 0,00 h 785 W/m 9,3 km/h (2 Bft) 96,15 %
02.06.2017 12:00 28,6 C 36,1 C 33,5 C 51 % 0 lf 1015,3 hPa 0,0 l/m 1,00 h 0,00 h 953 W/m 8,5 km/h (2 Bft) 94,25 %
02.06.2017 13:00 29,3 C 37,3 C 31,7 C 50 % 0 lf 1014,8 hPa 0,0 l/m 1,00 h 0,00 h 1044 W/m 10,3 km/h (2 Bft) 97,58 %
02.06.2017 14:00 30,1 C 37,2 C 36,3 C 49 % 0 lf 1014,3 hPa 0,0 l/m 0,97 h 0,00 h 898 W/m 9,4 km/h (2 Bft) 97,29 %
02.06.2017 15:00 30,1 C 35,6 C 37,4 C 48 % 0 lf 1014,0 hPa 0,0 l/m 0,97 h 0,00 h 884 W/m 10,2 km/h (2 Bft) 96,02 %
02.06.2017 16:00 29,7 C 31,9 C 33,8 C 48 % 0 lf 1013,4 hPa 0,0 l/m 0,87 h 0,00 h 605 W/m 9,0 km/h (2 Bft) 96,28 %
02.06.2017 17:00 29,5 C 31,0 C 29,6 C 48 % 0 lf 1013,1 hPa 0,0 l/m 0,77 h 0,00 h 498 W/m 12,2 km/h (2 Bft) 96,33 %
02.06.2017 18:00 28,2 C 29,1 C 27,7 C 50 % 0 lf 1013,0 hPa 0,0 l/m 0,40 h 0,00 h 203 W/m 9,4 km/h (2 Bft) 95,87 %
02.06.2017 19:00 27,6 C 27,7 C 26,9 C 53 % 0 lf 1013,0 hPa 0,0 l/m 0,47 h 0,00 h 155 W/m 11,9 km/h (2 Bft) 97,33 %
02.06.2017 20:00 24,3 C 23,4 C 22,6 C 68 % 0 lf 1013,2 hPa 0,0 l/m 0,23 h 0,00 h 50 W/m 17,9 km/h (3 Bft) 95,54 %
02.06.2017 21:00 23,0 C 22,3 C 21,1 C 72 % 0 lf 1013,2 hPa 0,0 l/m 0,40 h 0,00 h 18 W/m 5,3 km/h (1 Bft) 96,48 %
02.06.2017 22:00 22,1 C 21,1 C 19,7 C 74 % 0 lf 1013,4 hPa 0,0 l/m 0,00 h 0,00 h 5 W/m 5,3 km/h (1 Bft) 97,44 %
02.06.2017 23:00 20,8 C 19,4 C 17,8 C 79 % 0 lf 1013,2 hPa 0,0 l/m 0,00 h 0,00 h 0 W/m 5,3 km/h (1 Bft) 94,74 %
03.06.2017 00:00 19,5 C 18,9 C 17,5 C 82 % 0 lf 1013,2 hPa 0,0 l/m 0,00 h 0,00 h 0 W/m 7,0 km/h (2 Bft) 95,90 %
03.06.2017 01:00 19,2 C 19,0 C 17,6 C 84 % 0 lf 1012,9 hPa 0,0 l/m 0,00 h 0,17 h 0 W/m 10,2 km/h (2 Bft) 97,43 %
03.06.2017 02:00 19,1 C 18,4 C 16,8 C 85 % 8 lf 1012,2 hPa 0,0 l/m 0,00 h 0,37 h 0 W/m 3,6 km/h (1 Bft) 96,08 %
03.06.2017 03:00 18,8 C 18,2 C 16,7 C 88 % 2 lf 1012,1 hPa 0,0 l/m 0,00 h 0,03 h 0 W/m 2,2 km/h (1 Bft) 95,16 %
03.06.2017 04:00 18,2 C 18,2 C 16,8 C 85 % 3 lf 1012,1 hPa 0,0 l/m 0,00 h 0,33 h 0 W/m 5,0 km/h (1 Bft) 96,58 %
03.06.2017 05:00 18,2 C 18,0 C 16,3 C 82 % 5 lf 1012,1 hPa 0,0 l/m 0,00 h 0,37 h 13 W/m 4,5 km/h (1 Bft) 98,29 %
03.06.2017 06:00 18,1 C 17,4 C 16,0 C 85 % 8 lf 1012,1 hPa 0,2 l/m 0,00 h 0,30 h 50 W/m 3,4 km/h (1 Bft) 94,52 %
03.06.2017 07:00 18,3 C 18,3 C 16,8 C 90 % 7 lf 1012,0 hPa 0,0 l/m 0,23 h 0,00 h 125 W/m 4,8 km/h (1 Bft) 95,80 %
03.06.2017 08:00 18,8 C 20,6 C 19,5 C 89 % 0 lf 1012,3 hPa 0,0 l/m 0,23 h 0,00 h 184 W/m 5,5 km/h (1 Bft) 98,22 %
03.06.2017 09:00 20,7 C 27,4 C 21,6 C 82 % 0 lf 1012,3 hPa 0,0 l/m 0,73 h 0,00 h 374 W/m 3,1 km/h (1 Bft) 95,58 %
03.06.2017 10:00 24,3 C 33,1 C 29,0 C 68 % 0 lf 1012,1 hPa 0,0 l/m 1,00 h 0,00 h 559 W/m 7,9 km/h (2 Bft) 94,88 %
03.06.2017 11:00 24,9 C 28,6 C 28,1 C 66 % 0 lf 1012,0 hPa 0,0 l/m 1,00 h 0,00 h 454 W/m 9,9 km/h (2 Bft) 98,72 %
03.06.2017 12:00 26,3 C 33,2 C 31,1 C 64 % 0 lf 1011,8 hPa 0,0 l/m 1,00 h 0,00 h 643 W/m 10,3 km/h (2 Bft) 94,45 %
03.06.2017 13:00 26,9 C 31,6 C 30,0 C 62 % 0 lf 1011,3 hPa 0,0 l/m 0,90 h 0,00 h 592 W/m 11,7 km/h (2 Bft) 95,37 %
03.06.2017 14:00 26,6 C 28,8 C 29,3 C 63 % 4 lf 1011,0 hPa 0,2 l/m 0,53 h 0,30 h 496 W/m 18,3 km/h (3 Bft) 98,22 %
03.06.2017 15:00 23,4 C 25,8 C 24,6 C 78 % 6 lf 1011,0 hPa 0,2 l/m 0,77 h 0,10 h 532 W/m 10,4 km/h (2 Bft) 95,17 %
03.06.2017 16:00 24,0 C 26,1 C 25,7 C 72 % 0 lf 1010,9 hPa 0,0 l/m 0,42 h 0,00 h 343 W/m 15,3 km/h (3 Bft) 95,94 %
03.06.2017 17:00 24,1 C 26,4 C 24,6 C 69 % 0 lf 1010,6 hPa 0,0 l/m 0,90 h 0,00 h 406 W/m 14,4 km/h (3 Bft) 96,05 %
03.06.2017 18:00 23,9 C 25,2 C 24,1 C 69 % 0 lf 1010,3 hPa 0,0 l/m 0,00 h 0,00 h 191 W/m 14,0 km/h (3 Bft) 97,05 %
03.06.2017 19:00 21,6 C 20,6 C 19,0 C 76 % 6 lf 1010,8 hPa 0,2 l/m 0,00 h 0,33 h 61 W/m 13,7 km/h (3 Bft) 95,73 %
03.06.2017 20:00 19,8 C 19,6 C 17,7 C 86 % 10 lf 1010,8 hPa 0,0 l/m 0,60 h 0,00 h 75 W/m 3,3 km/h (1 Bft) 95,13 %
03.06.2017 21:00 19,2 C 18,4 C 17,2 C 83 % 5 lf 1011,2 hPa 0,2 l/m 0,17 h 0,40 h 20 W/m 11,0 km/h (2 Bft) 96,96 %
03.06.2017 22:00 18,2 C 15,9 C 15,0 C 85 % 15 lf 1011,6 hPa 1,0 l/m 0,00 h 0,97 h 5 W/m 7,2 km/h (2 Bft) 96,92 %
03.06.2017 23:00 16,9 C 15,2 C 14,4 C 88 % 15 lf 1011,5 hPa 0,4 l/m 0,00 h 1,00 h 0 W/m 6,6 km/h (2 Bft) 94,45 %
04.06.2017 00:00 16,1 C 15,0 C 14,1 C 91 % 15 lf 1011,5 hPa 0,2 l/m 0,00 h 0,77 h 0 W/m 7,7 km/h (2 Bft) 95,78 %
04.06.2017 01:00 15,8 C 15,0 C 14,1 C 93 % 15 lf 1011,9 hPa 0,8 l/m 0,00 h 1,00 h 0 W/m 6,9 km/h (2 Bft) 98,09 %
04.06.2017 02:00 15,6 C 14,8 C 13,9 C 94 % 15 lf 1012,1 hPa 0,6 l/m 0,00 h 1,00 h 0 W/m 7,5 km/h (2 Bft) 96,16 %
04.06.2017 03:00 15,0 C 14,4 C 13,6 C 95 % 15 lf 1012,2 hPa 0,6 l/m 0,00 h 0,97 h 0 W/m 7,8 km/h (2 Bft) 95,41 %
04.06.2017 04:00 14,8 C 14,4 C 13,4 C 96 % 15 lf 1012,2 hPa 0,2 l/m 0,00 h 0,23 h 0 W/m 4,5 km/h (1 Bft) 45,76 %
04.06.2017 05:00 14,8 C 14,4 C 13,7 C 96 % 15 lf 1012,3 hPa 0,0 l/m 0,00 h 0,00 h 8 W/m 5,3 km/h (1 Bft) 50,11 %
04.06.2017 06:00 14,9 C 14,5 C 13,9 C 97 % 15 lf 1012,5 hPa 0,0 l/m 0,00 h 0,00 h 35 W/m 7,5 km/h (2 Bft) 96,15 %
04.06.2017 07:00 15,1 C 15,2 C 14,3 C 97 % 15 lf 1012,9 hPa 0,0 l/m 0,00 h 0,00 h 87 W/m 10,2 km/h (2 Bft) 95,81 %
04.06.2017 08:00 15,0 C 16,6 C 14,6 C 97 % 9 lf 1013,5 hPa 0,0 l/m 0,23 h 0,00 h 186 W/m 16,0 km/h (3 Bft) 95,85 %
04.06.2017 09:00 16,4 C 23,8 C 16,4 C 91 % 0 lf 1013,9 hPa 0,0 l/m 0,60 h 0,00 h 353 W/m 15,7 km/h (3 Bft) 96,82 %
04.06.2017 10:00 18,7 C 26,6 C 22,8 C 81 % 0 lf 1014,2 hPa 0,0 l/m 0,90 h 0,00 h 571 W/m 19,3 km/h (3 Bft) 95,29 %
04.06.2017 11:00 20,1 C 26,1 C 23,6 C 72 % 0 lf 1014,4 hPa 0,0 l/m 0,70 h 0,00 h 553 W/m 19,3 km/h (3 Bft) 96,20 %
04.06.2017 12:00 20,7 C 25,4 C 23,4 C 67 % 0 lf 1014,5 hPa 0,0 l/m 0,33 h 0,00 h 478 W/m 18,3 km/h (3 Bft) 96,58 %
04.06.2017 13:00 20,9 C 23,6 C 22,2 C 63 % 0 lf 1014,5 hPa 0,0 l/m 0,07 h 0,00 h 296 W/m 17,1 km/h (3 Bft) 94,81 %
04.06.2017 14:00 19,9 C 22,0 C 21,5 C 65 % 0 lf 1014,8 hPa 0,0 l/m 0,13 h 0,03 h 307 W/m 20,1 km/h (4 Bft) 97,10 %
04.06.2017 15:00 20,5 C 23,3 C 23,6 C 61 % 0 lf 1014,9 hPa 0,0 l/m 0,37 h 0,00 h 395 W/m 21,5 km/h (4 Bft) 96,10 %
04.06.2017 16:00 20,3 C 22,6 C 22,3 C 63 % 0 lf 1014,8 hPa 0,0 l/m 0,33 h 0,00 h 306 W/m 15,5 km/h (3 Bft) 95,88 %
04.06.2017 17:00 20,8 C 22,7 C 21,8 C 60 % 0 lf 1014,8 hPa 0,0 l/m 0,63 h 0,00 h 372 W/m 17,3 km/h (3 Bft) 95,73 %
04.06.2017 18:00 20,7 C 21,7 C 20,4 C 57 % 0 lf 1014,9 hPa 0,0 l/m 0,53 h 0,00 h 250 W/m 16,2 km/h (3 Bft) 96,61 %
04.06.2017 19:00 19,8 C 20,1 C 18,9 C 58 % 0 lf 1014,8 hPa 0,0 l/m 0,50 h 0,00 h 146 W/m 12,9 km/h (3 Bft) 95,78 %
04.06.2017 20:00 18,9 C 18,7 C 17,5 C 59 % 0 lf 1014,9 hPa 0,0 l/m 0,27 h 0,00 h 59 W/m 13,2 km/h (3 Bft) 96,37 %
04.06.2017 21:00 17,5 C 16,9 C 15,7 C 59 % 0 lf 1015,4 hPa 0,0 l/m 0,00 h 0,00 h 17 W/m 13,5 km/h (3 Bft) 95,18 %
04.06.2017 22:00 16,3 C 14,6 C 13,3 C 62 % 0 lf 1015,7 hPa 0,0 l/m 0,00 h 0,00 h 4 W/m 5,4 km/h (1 Bft) 96,54 %
04.06.2017 23:00 14,7 C 12,5 C 10,7 C 69 % 0 lf 1015,7 hPa 0,0 l/m 0,00 h 0,00 h 4 W/m 1,7 km/h (1 Bft) 96,55 %
Min-Datum _ 01.06.17 01.06.17 01.06.17 29.05.17 29.05.17 29.05.17 - - - - 29.05.17 01.06.17
_ Min-Zeit 06:02 04:48 05:18 16:10 00:00 17:46 - - - - 00:00 04:05
Minimum _ 11,6 C 10,6 C 9,4 C 38 % 0 lf 1008,4 hPa - - - - 0,0 km/h (0 Bft) 0,88 %
Max-Datum _ 29.05.17 29.05.17 29.05.17 04.06.17 03.06.17 01.06.17 03.06.17 01.06.17 30.05.17 02.06.17 04.06.17 29.05.17
_ Max-Zeit 15:14 14:42 15:14 07:26 02:30 08:16 22:18 12:35 13:00 14:00 17:10 00:04
Maximum _ 34,8 C 41,7 C 45,0 C 98 % 15 lf 1022,0 hPa 1,0 l/m 0,08 h 0,03 h 1168 W/m 37,7 km/h
W-NW (5 Bft)
100,00 %
Durchschnitt _ 21,3 C 23,0 C 21,4 C 72 % 1 lf 1015,0 hPa #4,8 l/m #69:58 h #8:48 h 366 W/m 10,2 km/h (2 Bft) 94,37 %
© 2017 W. Hausmann